createdAt,value
2023-02-28T00:04:13.244Z,17.25
2023-02-28T00:08:30.459Z,21.60
2023-02-28T00:12:52.299Z,14.70
2023-02-28T00:17:09.388Z,18.85
2023-02-28T00:21:26.453Z,17.05
2023-02-28T00:25:43.538Z,18.17
2023-02-28T00:30:00.605Z,18.80
2023-02-28T00:34:17.687Z,18.83
2023-02-28T00:38:34.842Z,20.42
2023-02-28T00:42:51.968Z,16.53
2023-02-28T00:47:09.098Z,18.73
2023-02-28T00:51:26.327Z,19.90
2023-02-28T00:55:43.596Z,19.40
2023-02-28T01:00:00.740Z,21.03
2023-02-28T01:04:18.219Z,17.73
2023-02-28T01:08:35.309Z,21.42
2023-02-28T01:12:52.523Z,16.20
2023-02-28T01:17:09.836Z,18.17
2023-02-28T01:21:27.385Z,17.97
2023-02-28T01:25:44.799Z,17.05
2023-02-28T01:30:02.241Z,17.87
2023-02-28T01:34:20.397Z,20.33
2023-02-28T01:38:37.569Z,22.70
2023-02-28T01:42:54.780Z,26.63
2023-02-28T01:47:11.945Z,29.90
2023-02-28T01:51:46.635Z,30.05
2023-02-28T01:56:07.954Z,43.78
2023-02-28T02:00:27.781Z,41.45
2023-02-28T02:04:55.591Z,45.03
2023-02-28T02:09:13.433Z,39.97
2023-02-28T02:13:45.380Z,40.90
2023-02-28T02:18:12.264Z,42.55
2023-02-28T02:22:56.490Z,31.33
2023-02-28T02:27:41.050Z,33.15
2023-02-28T02:32:10.398Z,27.75
2023-02-28T02:36:35.052Z,19.02
2023-02-28T02:41:15.482Z,26.50
2023-02-28T02:45:39.031Z,18.55
2023-02-28T02:49:59.333Z,17.52
2023-02-28T02:54:24.533Z,19.88
2023-02-28T02:58:43.973Z,19.27
2023-02-28T03:03:02.636Z,20.52
2023-02-28T03:07:20.129Z,18.60
2023-02-28T03:11:38.911Z,18.42
2023-02-28T03:16:23.835Z,19.88
2023-02-28T03:21:11.847Z,16.75
2023-02-28T03:25:52.893Z,20.92
2023-02-28T03:30:28.352Z,17.17
2023-02-28T03:35:06.900Z,15.95
2023-02-28T03:39:50.255Z,16.27
2023-02-28T03:44:16.983Z,16.95
2023-02-28T03:48:47.884Z,17.48
2023-02-28T03:53:25.939Z,17.40
2023-02-28T03:58:02.857Z,18.98
2023-02-28T04:02:19.919Z,20.13
2023-02-28T04:06:37.589Z,16.80
2023-02-28T04:11:01.913Z,18.17
2023-02-28T04:15:23.641Z,16.33
2023-02-28T04:19:40.722Z,19.70
2023-02-28T04:24:01.624Z,21.00
2023-02-28T04:28:18.730Z,15.85
2023-02-28T04:32:35.912Z,19.25
2023-02-28T04:37:10.375Z,19.43
2023-02-28T04:41:32.253Z,20.17
2023-02-28T04:45:49.720Z,18.10
2023-02-28T04:50:07.275Z,19.77
2023-02-28T04:54:24.326Z,18.70
2023-02-28T04:58:41.767Z,19.90
2023-02-28T05:02:58.884Z,20.85
2023-02-28T05:07:15.953Z,20.57
2023-02-28T05:11:38.145Z,20.52
2023-02-28T05:15:55.663Z,22.50
2023-02-28T05:20:15.602Z,21.90
2023-02-28T05:24:33.582Z,29.02
2023-02-28T05:28:50.668Z,26.83
2023-02-28T05:33:07.729Z,24.77
2023-02-28T05:37:24.794Z,24.60
2023-02-28T05:41:43.114Z,28.40
2023-02-28T05:46:00.283Z,25.70
2023-02-28T05:50:17.414Z,29.70
2023-02-28T05:54:34.837Z,30.85
2023-02-28T05:58:51.906Z,28.13
2023-02-28T06:03:09.007Z,28.70
2023-02-28T06:07:26.108Z,28.50
2023-02-28T06:11:43.477Z,31.90
2023-02-28T06:16:03.766Z,31.63
2023-02-28T06:20:20.847Z,30.45
2023-02-28T06:24:38.001Z,30.52
2023-02-28T06:28:56.002Z,36.37
2023-02-28T06:37:31.835Z,32.95
2023-02-28T06:41:55.300Z,30.58
2023-02-28T06:46:15.113Z,28.95
2023-02-28T06:50:33.736Z,29.83
2023-02-28T06:55:00.979Z,29.67
2023-02-28T06:59:18.256Z,32.08
2023-02-28T07:03:36.802Z,30.37
2023-02-28T07:07:53.873Z,27.73
2023-02-28T07:12:11.014Z,26.67
2023-02-28T07:16:28.385Z,27.00
2023-02-28T07:20:45.543Z,26.07
2023-02-28T07:25:02.691Z,26.97
2023-02-28T07:29:19.808Z,26.75
2023-02-28T07:33:36.971Z,24.98
2023-02-28T07:37:54.079Z,28.38
2023-02-28T07:42:12.866Z,24.17
2023-02-28T07:46:38.581Z,26.50
2023-02-28T07:50:57.509Z,22.98
2023-02-28T07:55:14.990Z,25.02
2023-02-28T07:59:32.465Z,24.45
2023-02-28T08:03:49.611Z,21.38
2023-02-28T08:08:07.635Z,23.27
2023-02-28T08:12:24.918Z,22.85
2023-02-28T08:16:43.782Z,20.98
2023-02-28T08:21:06.055Z,22.27
2023-02-28T08:25:23.181Z,18.88
2023-02-28T08:29:40.493Z,19.50
2023-02-28T08:33:59.781Z,20.93
2023-02-28T08:38:16.866Z,17.58
2023-02-28T08:42:34.104Z,16.48
2023-02-28T08:46:51.185Z,17.55
2023-02-28T08:51:11.148Z,15.65
2023-02-28T08:55:28.221Z,17.92
2023-02-28T08:59:45.354Z,17.90
2023-02-28T09:04:03.368Z,17.73
2023-02-28T09:08:20.525Z,16.45
2023-02-28T09:12:37.671Z,16.27
2023-02-28T09:16:54.874Z,15.43
2023-02-28T09:21:16.308Z,16.40
2023-02-28T09:25:33.540Z,14.40
2023-02-28T09:29:50.670Z,14.23
2023-02-28T09:34:07.979Z,12.73
2023-02-28T09:38:25.097Z,16.00
2023-02-28T09:42:42.292Z,14.15
2023-02-28T09:47:06.083Z,13.43
2023-02-28T09:51:47.123Z,19.70
2023-02-28T09:56:11.217Z,15.00
2023-02-28T10:00:41.233Z,15.20
2023-02-28T10:05:04.990Z,12.10
2023-02-28T10:09:33.160Z,12.43
2023-02-28T10:14:06.752Z,12.87
2023-02-28T10:18:31.746Z,12.65
2023-02-28T10:22:57.583Z,10.68
2023-02-28T10:27:20.303Z,12.27
2023-02-28T10:31:37.532Z,11.25
2023-02-28T10:35:54.971Z,14.45
2023-02-28T10:40:29.426Z,12.52
2023-02-28T10:44:46.586Z,13.73
2023-02-28T10:49:06.664Z,10.55
2023-02-28T10:53:26.756Z,11.77
2023-02-28T10:57:43.826Z,9.98
2023-02-28T11:02:01.055Z,11.50
2023-02-28T11:06:21.995Z,10.52
2023-02-28T11:10:39.715Z,10.20
2023-02-28T11:15:05.321Z,11.73
2023-02-28T11:19:29.446Z,11.77
2023-02-28T11:23:46.992Z,12.80
2023-02-28T11:28:25.334Z,11.43
2023-02-28T11:32:50.285Z,14.25
2023-02-28T11:37:21.436Z,18.70
2023-02-28T11:42:04.514Z,13.32
2023-02-28T11:46:36.870Z,11.35
2023-02-28T11:50:53.959Z,11.10
2023-02-28T11:55:35.547Z,15.90
2023-02-28T12:00:02.102Z,13.32
2023-02-28T12:04:57.775Z,15.35
2023-02-28T12:09:36.926Z,13.73
2023-02-28T12:14:15.792Z,13.80
2023-02-28T12:18:44.605Z,12.70
2023-02-28T12:23:26.387Z,16.08
2023-02-28T12:27:46.997Z,13.45
2023-02-28T12:32:33.336Z,14.50
2023-02-28T12:36:52.829Z,13.07
2023-02-28T12:41:29.289Z,13.38
2023-02-28T12:45:52.220Z,14.77
2023-02-28T12:50:12.510Z,12.77
2023-02-28T12:54:32.471Z,17.17
2023-02-28T12:58:55.318Z,13.95
2023-02-28T13:03:31.732Z,15.88
2023-02-28T13:08:08.440Z,13.77
2023-02-28T13:12:27.687Z,15.48
2023-02-28T13:17:04.818Z,17.50
2023-02-28T13:21:30.834Z,15.48
2023-02-28T13:25:52.190Z,16.63
2023-02-28T13:30:47.227Z,17.38
2023-02-28T13:35:05.311Z,16.45
2023-02-28T13:39:37.751Z,15.80
2023-02-28T13:44:09.700Z,20.05
2023-02-28T13:48:30.316Z,15.07
2023-02-28T13:53:13.852Z,17.17
2023-02-28T13:58:01.260Z,17.75
2023-02-28T14:02:50.633Z,18.30
2023-02-28T14:07:09.074Z,18.73
2023-02-28T14:11:29.857Z,17.52
2023-02-28T14:15:50.520Z,14.82
2023-02-28T14:20:16.961Z,17.05
2023-02-28T14:24:52.718Z,19.92
2023-02-28T14:29:41.633Z,19.77
2023-02-28T14:34:23.536Z,17.97
2023-02-28T14:38:54.038Z,18.95
2023-02-28T14:43:23.911Z,17.65
2023-02-28T14:47:43.754Z,19.05
2023-02-28T14:52:18.500Z,18.08
2023-02-28T14:56:39.316Z,25.88
2023-02-28T15:00:59.897Z,20.17
2023-02-28T15:05:17.606Z,26.02
2023-02-28T15:09:34.754Z,21.17
2023-02-28T15:13:57.311Z,24.67
2023-02-28T15:18:23.144Z,26.23
2023-02-28T15:22:40.683Z,19.08
2023-02-28T15:27:00.197Z,21.63
2023-02-28T15:31:46.975Z,23.52
2023-02-28T15:36:16.356Z,22.77
2023-02-28T15:40:38.194Z,19.40
2023-02-28T15:44:55.350Z,22.92
2023-02-28T15:49:21.461Z,28.15
2023-02-28T15:53:46.145Z,22.95
2023-02-28T15:58:03.710Z,22.58
2023-02-28T16:02:23.621Z,19.40
2023-02-28T16:06:58.780Z,25.23
2023-02-28T16:11:16.084Z,25.90
2023-02-28T16:15:42.512Z,24.27
2023-02-28T16:20:00.940Z,22.08
2023-02-28T16:24:18.001Z,26.00
2023-02-28T16:28:37.536Z,21.23
2023-02-28T16:32:56.636Z,23.17
2023-02-28T16:37:18.720Z,24.90
2023-02-28T16:41:35.930Z,27.33
2023-02-28T16:46:01.380Z,23.92
2023-02-28T16:50:27.674Z,24.58
2023-02-28T16:54:44.758Z,26.27
2023-02-28T16:59:03.166Z,26.40
2023-02-28T17:03:32.634Z,29.17
2023-02-28T17:07:50.883Z,29.60
2023-02-28T17:12:09.056Z,33.13
2023-02-28T17:20:46.781Z,29.55
2023-02-28T17:25:04.364Z,31.05
2023-02-28T17:29:22.405Z,29.52
2023-02-28T17:33:39.563Z,30.38
2023-02-28T17:37:56.740Z,36.42
2023-02-28T17:42:13.811Z,37.30
2023-02-28T17:46:31.648Z,36.45
2023-02-28T17:50:49.072Z,36.03
2023-02-28T17:55:06.603Z,32.65
2023-02-28T17:59:23.707Z,39.58
2023-02-28T18:03:41.088Z,37.67
2023-02-28T18:07:58.344Z,39.17
2023-02-28T18:12:15.464Z,39.30
2023-02-28T18:16:33.022Z,34.72
2023-02-28T18:20:50.827Z,40.25
2023-02-28T18:25:14.472Z,40.30
2023-02-28T18:29:32.582Z,38.17
2023-02-28T18:38:22.447Z,41.58
2023-02-28T18:42:39.640Z,42.08
2023-02-28T18:46:56.936Z,34.70
2023-02-28T18:51:20.308Z,38.43
2023-02-28T18:55:37.658Z,38.70
2023-02-28T18:59:54.843Z,38.20
2023-02-28T19:04:13.673Z,47.97
2023-02-28T19:08:32.435Z,47.28
2023-02-28T19:12:51.687Z,47.72
2023-02-28T19:17:10.540Z,49.90
2023-02-28T19:21:31.483Z,51.70
2023-02-28T19:25:50.686Z,49.85
2023-02-28T19:30:10.490Z,52.70
2023-02-28T19:34:29.711Z,46.47
2023-02-28T19:38:48.991Z,46.30
2023-02-28T19:43:09.186Z,45.47
2023-02-28T19:47:27.328Z,39.97
2023-02-28T19:56:04.092Z,44.30
2023-02-28T20:00:21.713Z,48.20
2023-02-28T20:04:39.040Z,46.22
2023-02-28T20:08:56.401Z,44.23
2023-02-28T20:13:16.673Z,48.30
2023-02-28T20:17:34.054Z,44.90
2023-02-28T20:21:51.349Z,46.47
2023-02-28T20:26:09.850Z,43.67
2023-02-28T20:30:27.216Z,48.47
2023-02-28T20:34:44.806Z,45.95
2023-02-28T20:39:02.094Z,51.47
2023-02-28T20:43:19.252Z,50.70
2023-02-28T20:47:36.418Z,100.77
2023-02-28T20:51:53.505Z,61.30
2023-02-28T20:56:16.344Z,58.03
2023-02-28T21:00:33.401Z,52.17
2023-02-28T21:04:50.471Z,53.53
2023-02-28T21:09:08.911Z,55.27
2023-02-28T21:13:26.747Z,53.88
2023-02-28T21:17:43.872Z,53.15
2023-02-28T21:22:01.019Z,49.27
2023-02-28T21:26:23.850Z,52.43
2023-02-28T21:30:41.008Z,51.90
2023-02-28T21:34:58.165Z,54.43
2023-02-28T21:39:19.069Z,52.13
2023-02-28T21:43:36.976Z,52.35
2023-02-28T21:52:10.988Z,49.55
2023-02-28T21:56:31.448Z,52.87
2023-02-28T22:00:49.084Z,53.20
2023-02-28T22:05:06.377Z,51.95
2023-02-28T22:09:23.598Z,54.13
2023-02-28T22:13:41.402Z,53.10
2023-02-28T22:17:58.890Z,55.15
2023-02-28T22:22:15.976Z,54.92
2023-02-28T22:26:33.363Z,54.73
2023-02-28T22:30:51.001Z,53.95
2023-02-28T22:35:08.553Z,56.08
2023-02-28T22:39:25.620Z,54.83
2023-02-28T22:43:43.987Z,53.67
2023-02-28T22:48:01.708Z,56.45
2023-02-28T22:52:18.833Z,54.42
2023-02-28T22:56:36.162Z,53.47
2023-02-28T23:00:54.841Z,51.47
2023-02-28T23:05:13.230Z,48.95
2023-02-28T23:09:30.361Z,52.63
2023-02-28T23:13:58.353Z,52.70
2023-02-28T23:18:15.686Z,53.03
2023-02-28T23:22:32.807Z,48.33
2023-02-28T23:26:53.728Z,52.57
2023-02-28T23:31:10.835Z,50.58
2023-02-28T23:35:28.141Z,51.37
2023-02-28T23:39:45.231Z,51.50
2023-02-28T23:44:02.314Z,53.50
2023-02-28T23:48:19.534Z,54.47
2023-02-28T23:52:36.678Z,50.97
2023-02-28T23:56:54.105Z,50.13
